Time;durP1;ratioP1;P1;durP2;ratioP2;P2;SDS_P1;SDS_P2;PMS_P1;PMS_P2;Temp;Humidity;BMP_temperature;BMP_pressure;BME280_temperature;BME280_humidity;BME280_pressure;Samples;Min_cycle;Max_cycle;Signal;HPM_P1;HPM_P2
2021/12/11 00:00:22;;;;;;;2.10;1.63;;;5.10;99.90;;;;;;4992346;28;20404;-61
2021/12/11 00:03:07;;;;;;;1.90;1.80;;;5.10;99.90;;;;;;4989309;28;20420;-60
2021/12/11 00:05:35;;;;;;;2.23;1.60;;;5.00;99.90;;;;;;4992539;28;20423;-61
2021/12/11 00:08:01;;;;;;;1.93;1.83;;;4.90;99.90;;;;;;4976215;28;20423;-61
2021/12/11 00:10:32;;;;;;;2.13;1.63;;;4.90;99.90;;;;;;4993971;28;20419;-60
2021/12/11 00:13:03;;;;;;;2.20;1.63;;;4.90;99.90;;;;;;4993211;28;20432;-60
2021/12/11 00:15:34;;;;;;;1.67;1.33;;;5.00;99.90;;;;;;4998226;28;20419;-58
2021/12/11 00:18:10;;;;;;;1.50;1.30;;;5.00;99.90;;;;;;4996952;28;20395;-57
2021/12/11 00:20:42;;;;;;;2.23;1.97;;;5.00;99.90;;;;;;4997658;28;20766;-59
2021/12/11 00:23:08;;;;;;;1.30;1.20;;;5.10;99.90;;;;;;4997999;28;20749;-60
2021/12/11 00:25:42;;;;;;;1.53;1.43;;;5.10;99.90;;;;;;4997520;28;20427;-60
2021/12/11 00:28:08;;;;;;;1.73;1.63;;;5.10;99.90;;;;;;4996907;28;20585;-60
2021/12/11 00:30:37;;;;;;;1.77;1.67;;;5.20;99.90;;;;;;4998299;28;20486;-60
2021/12/11 00:33:17;;;;;;;1.20;1.10;;;5.10;99.90;;;;;;4996444;28;20487;-56
2021/12/11 00:35:43;;;;;;;1.60;1.50;;;5.20;99.90;;;;;;4997572;28;20521;-60
2021/12/11 00:38:13;;;;;;;1.40;1.20;;;5.30;99.90;;;;;;4998365;28;20439;-61
2021/12/11 00:40:40;;;;;;;2.03;1.70;;;5.30;99.90;;;;;;4997626;28;20478;-60
2021/12/11 00:43:11;;;;;;;1.10;1.00;;;5.40;99.90;;;;;;4979800;28;20410;-60
2021/12/11 00:45:39;;;;;;;2.50;2.30;;;5.30;99.90;;;;;;4979747;28;20474;-60
2021/12/11 00:48:08;;;;;;;1.33;1.23;;;5.30;99.90;;;;;;4997221;28;20818;-59
2021/12/11 00:50:44;;;;;;;1.50;1.20;;;5.20;99.90;;;;;;4979580;28;20416;-58
2021/12/11 00:53:22;;;;;;;2.87;1.33;;;5.30;99.90;;;;;;4997329;28;20859;-60
2021/12/11 00:55:54;;;;;;;1.07;1.00;;;5.30;99.90;;;;;;4996697;28;20513;-60
2021/12/11 00:58:20;;;;;;;1.40;1.30;;;5.30;99.90;;;;;;4979794;28;20384;-60
2021/12/11 01:01:01;;;;;;;1.00;1.00;;;5.30;99.90;;;;;;4996793;28;20400;-61
2021/12/11 01:03:41;;;;;;;1.47;1.07;;;5.50;99.90;;;;;;4996943;28;20619;-60
2021/12/11 01:06:13;;;;;;;1.50;1.30;;;5.40;99.90;;;;;;4979228;28;20443;-58
2021/12/11 01:08:43;;;;;;;1.60;1.50;;;5.40;99.90;;;;;;4996835;28;20836;-61
2021/12/11 01:11:21;;;;;;;3.23;2.10;;;5.40;99.90;;;;;;4996510;28;20407;-59
2021/12/11 01:14:11;;;;;;;1.90;1.60;;;5.40;99.90;;;;;;4978902;28;20820;-60
2021/12/11 01:16:38;;;;;;;1.47;1.37;;;5.20;99.90;;;;;;4996503;28;20393;-60
2021/12/11 01:19:07;;;;;;;1.67;1.57;;;5.10;99.90;;;;;;4996534;28;20845;-60
2021/12/11 01:24:26;;;;;;;1.93;1.40;;;5.00;99.90;;;;;;4996785;28;20427;-61
2021/12/11 01:26:53;;;;;;;1.63;1.50;;;5.00;99.90;;;;;;4995453;28;20392;-58
2021/12/11 01:29:21;;;;;;;6.17;4.67;;;5.00;99.90;;;;;;4996302;28;20905;-61
2021/12/11 01:31:49;;;;;;;5.43;4.93;;;4.90;99.90;;;;;;4995979;28;20439;-60
2021/12/11 01:34:15;;;;;;;1.50;1.37;;;5.10;99.90;;;;;;4996242;28;20474;-60
2021/12/11 01:36:41;;;;;;;2.60;1.73;;;5.10;99.90;;;;;;4996288;28;20881;-61
2021/12/11 01:39:12;;;;;;;1.53;1.43;;;5.10;99.90;;;;;;4996770;28;20405;-61
2021/12/11 01:41:39;;;;;;;2.10;1.30;;;5.20;99.90;;;;;;4995977;28;20870;-59
2021/12/11 01:44:19;;;;;;;1.70;1.20;;;5.40;99.90;;;;;;4996546;28;20428;-61
2021/12/11 01:46:46;;;;;;;1.83;1.40;;;5.30;99.90;;;;;;4995974;28;20900;-61
2021/12/11 01:49:16;;;;;;;1.43;1.33;;;5.20;99.90;;;;;;4996003;28;20411;-61
2021/12/11 01:51:53;;;;;;;1.30;1.20;;;5.20;99.90;;;;;;4995887;28;20532;-61
2021/12/11 01:54:31;;;;;;;1.70;1.53;;;5.00;99.90;;;;;;4996088;28;20443;-61
2021/12/11 01:57:02;;;;;;;1.67;1.57;;;5.30;99.90;;;;;;4995596;28;20391;-61
2021/12/11 01:59:32;;;;;;;1.40;1.30;;;5.40;99.90;;;;;;4962455;28;20893;-61
2021/12/11 02:02:04;;;;;;;1.43;1.33;;;5.10;99.90;;;;;;4995489;28;20419;-61
2021/12/11 02:04:32;;;;;;;1.80;1.23;;;5.10;99.90;;;;;;4995905;28;20428;-61
2021/12/11 02:07:05;;;;;;;1.20;1.10;;;5.20;99.90;;;;;;4995729;28;20921;-61
2021/12/11 02:09:34;;;;;;;1.50;1.40;;;4.90;99.90;;;;;;4978556;28;20385;-61
2021/12/11 02:12:36;;;;;;;1.10;0.90;;;5.00;99.90;;;;;;4992060;28;20838;-61
2021/12/11 02:15:05;;;;;;;1.10;1.00;;;5.10;99.90;;;;;;4990999;28;20445;-60
2021/12/11 02:17:36;;;;;;;1.40;1.30;;;5.10;99.90;;;;;;4995733;28;20920;-61
2021/12/11 02:20:06;;;;;;;2.80;0.87;;;4.80;99.90;;;;;;4994107;28;20418;-60
2021/12/11 02:22:38;;;;;;;1.10;1.00;;;4.60;99.90;;;;;;4995692;28;20404;-61
2021/12/11 02:25:09;;;;;;;1.33;1.23;;;4.80;99.90;;;;;;4995155;28;20479;-61
2021/12/11 02:27:51;;;;;;;0.83;0.80;;;4.70;99.90;;;;;;4995043;28;20429;-61
2021/12/11 02:30:20;;;;;;;0.77;0.70;;;4.60;99.90;;;;;;4995389;28;20424;-61
2021/12/11 02:32:58;;;;;;;1.07;0.97;;;4.50;99.90;;;;;;4994758;28;20452;-61
2021/12/11 02:35:33;;;;;;;1.10;0.83;;;4.50;99.90;;;;;;4995387;28;20447;-61
2021/12/11 02:38:39;;;;;;;1.03;0.60;;;4.40;99.90;;;;;;4995073;28;20767;-61
2021/12/11 02:41:35;;;;;;;1.00;0.80;;;4.60;99.90;;;;;;4932680;29;20517;-61
2021/12/11 02:44:15;;;;;;;1.00;0.83;;;4.70;99.90;;;;;;4975059;28;20444;-60
2021/12/11 02:46:56;;;;;;;1.40;1.00;;;4.70;99.90;;;;;;4987259;28;20403;-61
2021/12/11 02:49:33;;;;;;;1.10;0.77;;;4.40;99.90;;;;;;4995085;28;20380;-61
2021/12/11 02:52:13;;;;;;;1.00;0.90;;;4.50;99.90;;;;;;4994655;28;20395;-61
2021/12/11 02:54:53;;;;;;;1.00;0.70;;;4.50;99.90;;;;;;5019786;23;20490;-53
2021/12/11 02:57:41;;;;;;;0.90;0.80;;;4.50;99.90;;;;;;4993967;28;20404;-54
2021/12/11 03:00:12;;;;;;;0.70;0.60;;;4.50;99.90;;;;;;4973992;28;20405;-52
2021/12/11 03:02:44;;;;;;;1.30;1.00;;;4.70;99.90;;;;;;4990868;28;20399;-52
2021/12/11 03:05:14;;;;;;;1.43;1.00;;;4.60;99.90;;;;;;4978259;28;20432;-52
2021/12/11 03:07:44;;;;;;;0.70;0.70;;;4.70;99.90;;;;;;4995111;28;20412;-51
2021/12/11 03:10:14;;;;;;;0.90;0.80;;;4.60;99.90;;;;;;4978338;28;20920;-52
2021/12/11 03:12:43;;;;;;;1.20;0.70;;;4.50;99.90;;;;;;4994939;28;20498;-52
2021/12/11 03:15:10;;;;;;;1.00;0.90;;;4.50;99.90;;;;;;4978091;28;20442;-56
2021/12/11 03:17:36;;;;;;;0.90;0.80;;;4.70;99.90;;;;;;4961275;28;20411;-57
2021/12/11 03:20:08;;;;;;;0.87;0.87;;;4.80;99.90;;;;;;4994768;28;20411;-56
2021/12/11 03:22:34;;;;;;;1.00;0.90;;;4.90;99.90;;;;;;4978059;28;20470;-58
2021/12/11 03:25:05;;;;;;;1.13;0.90;;;4.80;99.90;;;;;;4977202;28;20875;-52
2021/12/11 03:27:31;;;;;;;1.17;1.07;;;4.80;99.90;;;;;;4977057;28;20407;-55
2021/12/11 03:29:57;;;;;;;1.20;1.10;;;4.90;99.90;;;;;;4977275;28;21067;-57
2021/12/11 03:32:23;;;;;;;1.73;1.63;;;4.80;99.90;;;;;;4994364;28;20192;-56
2021/12/11 03:34:49;;;;;;;1.80;1.70;;;4.80;99.90;;;;;;4984535;28;20265;-56
2021/12/11 03:37:19;;;;;;;1.33;1.23;;;5.00;99.90;;;;;;5012765;28;20411;-57
2021/12/11 03:39:48;;;;;;;1.30;1.20;;;4.90;99.90;;;;;;5014345;28;20405;-57
2021/12/11 03:42:25;;;;;;;1.70;1.60;;;4.90;99.90;;;;;;5013767;28;20403;-56
2021/12/11 03:44:51;;;;;;;2.10;2.00;;;4.80;99.90;;;;;;5012913;28;20445;-57
2021/12/11 03:47:23;;;;;;;2.20;1.93;;;4.60;99.90;;;;;;5012470;28;20421;-56
2021/12/11 03:49:49;;;;;;;2.40;2.30;;;4.60;99.90;;;;;;5012962;28;20763;-56
2021/12/11 03:52:15;;;;;;;2.03;1.93;;;4.60;99.90;;;;;;5012834;28;20439;-57
2021/12/11 03:54:43;;;;;;;2.30;2.20;;;4.70;99.90;;;;;;5012898;28;20449;-57
2021/12/11 03:57:12;;;;;;;3.07;2.80;;;4.70;99.90;;;;;;4996461;28;20777;-54
2021/12/11 03:59:38;;;;;;;2.43;2.27;;;4.50;99.90;;;;;;5012969;28;20769;-54
2021/12/11 04:02:11;;;;;;;2.57;2.37;;;4.70;99.90;;;;;;5001889;28;20408;-54
2021/12/11 04:04:47;;;;;;;2.37;2.27;;;4.80;99.90;;;;;;4976936;28;20428;-54
2021/12/11 04:07:18;;;;;;;2.40;2.30;;;5.00;99.90;;;;;;4992003;28;20396;-55
2021/12/11 04:09:45;;;;;;;2.90;2.70;;;5.00;99.90;;;;;;4993314;28;20380;-55
2021/12/11 04:12:12;;;;;;;2.20;2.07;;;5.00;99.90;;;;;;4976554;28;20447;-56
2021/12/11 04:14:43;;;;;;;2.90;2.70;;;5.00;99.90;;;;;;4994270;28;20422;-57
2021/12/11 04:17:11;;;;;;;2.77;2.57;;;5.00;99.90;;;;;;4993104;28;20471;-54
2021/12/11 04:19:39;;;;;;;2.70;2.50;;;4.70;99.90;;;;;;4992144;28;20514;-55
2021/12/11 04:22:07;;;;;;;3.27;3.07;;;4.80;99.90;;;;;;4994017;28;20399;-55
2021/12/11 04:24:35;;;;;;;2.70;2.53;;;4.80;99.90;;;;;;4994164;28;20423;-56
2021/12/11 04:27:03;;;;;;;3.23;3.03;;;4.70;99.90;;;;;;4977248;28;20503;-57
2021/12/11 04:29:29;;;;;;;2.70;2.50;;;4.60;99.90;;;;;;4977385;28;20515;-57
2021/12/11 04:31:56;;;;;;;3.60;3.30;;;4.70;99.90;;;;;;4993206;28;20458;-54
2021/12/11 04:34:24;;;;;;;3.13;2.93;;;4.70;99.90;;;;;;4996705;28;20426;-53
2021/12/11 04:36:56;;;;;;;3.87;3.67;;;4.80;99.90;;;;;;5012704;28;20405;-55
2021/12/11 04:39:24;;;;;;;3.60;3.40;;;4.80;99.90;;;;;;5012165;28;20439;-57
2021/12/11 04:42:03;;;;;;;3.70;3.50;;;4.80;99.90;;;;;;5012937;28;20876;-57
2021/12/11 04:44:41;;;;;;;3.40;3.20;;;4.80;99.90;;;;;;5012325;28;20429;-53
2021/12/11 04:47:15;;;;;;;2.83;2.63;;;4.90;99.90;;;;;;5012223;28;20884;-51
2021/12/11 04:49:52;;;;;;;3.73;3.53;;;4.90;99.90;;;;;;5006510;28;20765;-55
2021/12/11 04:52:26;;;;;;;3.47;3.27;;;4.80;99.90;;;;;;4992647;28;20447;-57
2021/12/11 05:11:01;;;;;;;5.27;4.77;;;4.30;99.90;;;;;;4996567;28;20483;-51
2021/12/11 05:13:29;;;;;;;4.87;4.57;;;4.40;99.90;;;;;;4996975;28;20822;-51
2021/12/11 05:16:01;;;;;;;4.43;4.13;;;4.50;99.90;;;;;;4997133;28;20419;-55
2021/12/11 05:18:29;;;;;;;4.47;4.17;;;4.40;99.90;;;;;;4963931;28;20400;-53
2021/12/11 05:21:00;;;;;;;5.53;5.10;;;4.40;99.90;;;;;;4995893;28;20782;-55
2021/12/11 05:23:28;;;;;;;6.73;5.40;;;4.50;99.90;;;;;;4964491;28;20897;-56
2021/12/11 05:25:54;;;;;;;5.03;4.73;;;4.70;99.90;;;;;;4995766;28;20424;-57
2021/12/11 05:28:21;;;;;;;6.70;6.20;;;4.60;99.90;;;;;;4963407;28;20426;-54
2021/12/11 05:30:49;;;;;;;5.30;4.90;;;4.80;99.90;;;;;;4997341;28;20412;-54
2021/12/11 05:33:17;;;;;;;5.27;4.90;;;4.70;99.90;;;;;;4994070;28;20444;-54
2021/12/11 05:35:44;;;;;;;5.10;4.70;;;4.80;99.90;;;;;;4997499;28;20478;-55
2021/12/11 05:38:12;;;;;;;5.10;4.80;;;4.60;99.90;;;;;;4997741;28;20821;-55
2021/12/11 05:40:43;;;;;;;6.40;5.90;;;4.50;99.90;;;;;;5016361;28;20407;-53
2021/12/11 05:43:10;;;;;;;5.10;4.80;;;4.50;99.90;;;;;;5016045;28;20387;-51
2021/12/11 05:45:36;;;;;;;6.13;5.73;;;4.60;99.90;;;;;;5015218;28;20427;-55
2021/12/11 05:48:03;;;;;;;4.80;4.47;;;4.60;99.90;;;;;;5015781;28;20452;-56
2021/12/11 05:50:34;;;;;;;4.90;4.50;;;4.50;99.90;;;;;;5003175;28;20976;-56
2021/12/11 05:53:00;;;;;;;5.27;4.97;;;4.40;99.90;;;;;;5015011;28;20604;-51
2021/12/11 05:55:28;;;;;;;5.10;4.70;;;4.50;99.90;;;;;;5016086;28;20454;-52
2021/12/11 05:57:57;;;;;;;4.90;4.60;;;4.50;99.90;;;;;;5014880;28;20403;-55
2021/12/11 06:00:30;;;;;;;5.23;4.83;;;4.50;99.90;;;;;;5015966;28;20435;-52
2021/12/11 06:02:56;;;;;;;5.53;5.13;;;4.40;99.90;;;;;;5015420;28;20387;-56
2021/12/11 06:05:22;;;;;;;6.27;5.77;;;4.60;99.90;;;;;;5008980;28;20904;-56
2021/12/11 06:07:48;;;;;;;6.07;5.57;;;4.60;99.90;;;;;;4994822;28;20411;-57
2021/12/11 06:10:18;;;;;;;5.70;5.30;;;4.70;99.90;;;;;;4995049;28;20408;-56
2021/12/11 06:12:46;;;;;;;6.90;6.40;;;4.70;99.90;;;;;;4994258;28;20981;-51
2021/12/11 06:15:13;;;;;;;6.03;5.60;;;4.70;99.90;;;;;;4978312;28;20435;-53
2021/12/11 06:17:42;;;;;;;5.80;5.30;;;4.50;99.90;;;;;;4978824;28;20400;-55
2021/12/11 06:20:11;;;;;;;7.07;6.50;;;4.50;99.90;;;;;;4978371;28;20418;-56
2021/12/11 06:22:38;;;;;;;6.30;5.80;;;4.50;99.90;;;;;;4994647;28;20921;-57
2021/12/11 06:25:08;;;;;;;6.17;5.63;;;4.60;99.90;;;;;;4994922;28;20792;-56
2021/12/11 06:27:35;;;;;;;8.70;7.80;;;4.50;99.90;;;;;;5002001;28;20407;-55
2021/12/11 06:30:02;;;;;;;6.43;6.00;;;4.30;99.90;;;;;;5015396;28;20442;-52
2021/12/11 06:32:27;;;;;;;6.50;6.00;;;4.40;99.90;;;;;;4997889;28;20470;-55
2021/12/11 06:34:56;;;;;;;7.10;6.50;;;4.40;99.90;;;;;;5014294;28;20415;-54
2021/12/11 06:37:22;;;;;;;7.40;6.80;;;4.20;99.90;;;;;;5015929;28;20403;-55
2021/12/11 06:39:50;;;;;;;7.90;7.30;;;4.30;99.90;;;;;;5015208;28;20497;-52
2021/12/11 06:42:17;;;;;;;10.40;9.50;;;4.40;99.90;;;;;;5014454;28;20411;-51
2021/12/11 06:44:42;;;;;;;7.67;7.03;;;4.40;99.90;;;;;;5014090;28;20427;-53
2021/12/11 06:47:10;;;;;;;8.17;7.47;;;4.50;99.90;;;;;;5015868;28;20980;-53
2021/12/11 06:49:38;;;;;;;8.60;7.90;;;4.50;99.90;;;;;;5009354;28;20514;-54
2021/12/11 06:52:10;;;;;;;8.03;7.33;;;4.30;99.90;;;;;;4978309;28;20498;-55
2021/12/11 06:54:36;;;;;;;12.03;11.03;;;4.20;99.90;;;;;;4994532;28;20466;-51
2021/12/11 06:57:02;;;;;;;8.47;7.77;;;4.30;99.90;;;;;;4994311;28;20419;-53
2021/12/11 06:59:28;;;;;;;11.00;10.00;;;4.40;99.90;;;;;;4995878;28;20466;-51
2021/12/11 07:01:54;;;;;;;8.80;8.10;;;4.40;99.90;;;;;;4978116;28;20408;-52
2021/12/11 07:04:20;;;;;;;11.30;10.20;;;4.30;99.90;;;;;;4977522;28;20431;-54
2021/12/11 07:06:50;;;;;;;19.70;17.87;;;4.30;99.90;;;;;;4995110;28;20168;-54
2021/12/11 07:09:17;;;;;;;15.10;13.80;;;4.30;99.90;;;;;;4994438;28;20204;-55
2021/12/11 07:11:44;;;;;;;53.23;47.73;;;4.40;99.90;;;;;;4995118;28;21043;-51
2021/12/11 07:14:16;;;;;;;21.63;19.73;;;4.40;99.90;;;;;;4994066;28;20534;-54
2021/12/11 07:16:43;;;;;;;17.37;15.93;;;4.30;99.90;;;;;;4994393;28;20380;-51
2021/12/11 07:19:09;;;;;;;7.80;7.10;;;4.40;99.90;;;;;;4993789;28;20404;-54
2021/12/11 07:21:36;;;;;;;11.93;10.80;;;4.30;99.90;;;;;;4995303;28;20392;-53
2021/12/11 07:24:04;;;;;;;14.03;12.93;;;4.40;99.90;;;;;;4993124;28;20439;-53
2021/12/11 07:26:33;;;;;;;15.40;11.87;;;4.50;99.90;;;;;;4995263;28;20420;-54
2021/12/11 07:29:19;;;;;;;14.57;13.47;;;4.60;99.90;;;;;;5012786;28;20411;-53
2021/12/11 07:31:48;;;;;;;16.03;14.73;;;4.50;99.90;;;;;;5015037;28;20437;-52
2021/12/11 07:34:16;;;;;;;13.60;12.50;;;4.50;99.90;;;;;;5012820;28;20518;-55
2021/12/11 07:36:43;;;;;;;12.67;11.37;;;4.50;99.90;;;;;;5014450;28;20403;-54
2021/12/11 07:39:12;;;;;;;10.20;9.30;;;4.50;99.90;;;;;;4996953;28;20408;-55
2021/12/11 07:41:38;;;;;;;11.13;10.00;;;4.60;99.90;;;;;;5014441;28;20402;-54
2021/12/11 07:44:04;;;;;;;10.30;9.40;;;4.70;99.90;;;;;;5013082;28;20746;-56
2021/12/11 07:46:31;;;;;;;12.07;10.93;;;4.60;99.90;;;;;;4997218;28;20419;-56
2021/12/11 07:48:58;;;;;;;13.13;11.83;;;4.50;99.90;;;;;;5013116;28;20199;-54
2021/12/11 07:51:27;;;;;;;12.17;10.90;;;4.50;99.90;;;;;;4993891;28;20419;-55
2021/12/11 07:53:54;;;;;;;13.27;12.07;;;4.70;99.90;;;;;;4993260;28;20447;-51
2021/12/11 07:56:21;;;;;;;11.53;10.47;;;4.60;99.90;;;;;;4993235;28;20447;-56
2021/12/11 07:58:50;;;;;;;13.13;11.83;;;4.70;99.90;;;;;;4978196;28;20423;-55
2021/12/11 08:01:16;;;;;;;11.37;10.30;;;4.70;99.90;;;;;;4993630;28;20423;-56
2021/12/11 08:03:42;;;;;;;14.73;13.43;;;4.70;99.90;;;;;;4976807;28;20410;-55
2021/12/11 08:06:10;;;;;;;17.97;15.80;;;4.80;99.90;;;;;;4994387;28;20425;-55
2021/12/11 08:08:37;;;;;;;17.87;15.20;;;4.80;99.90;;;;;;4992769;28;20177;-56
2021/12/11 08:11:11;;;;;;;14.27;12.70;;;4.60;99.90;;;;;;4994224;28;20479;-58
2021/12/11 08:13:38;;;;;;;14.70;12.93;;;4.80;99.90;;;;;;4993014;28;20483;-54
2021/12/11 08:16:04;;;;;;;10.47;9.50;;;4.70;99.90;;;;;;4992304;28;20427;-56
2021/12/11 08:18:30;;;;;;;13.80;12.40;;;4.60;99.90;;;;;;4977228;28;20419;-55
2021/12/11 08:20:56;;;;;;;14.03;12.53;;;4.80;99.90;;;;;;4993330;28;20923;-57
2021/12/11 08:23:23;;;;;;;13.13;11.73;;;4.80;99.90;;;;;;4992816;28;20408;-55
2021/12/11 08:25:50;;;;;;;13.70;12.40;;;4.70;99.90;;;;;;4994425;28;20450;-56
2021/12/11 08:28:27;;;;;;;17.53;14.50;;;4.70;99.90;;;;;;4986472;28;20462;-55
2021/12/11 08:30:57;;;;;;;13.03;11.63;;;5.00;99.90;;;;;;4994475;28;20388;-56
2021/12/11 08:33:24;;;;;;;11.30;10.00;;;5.00;99.90;;;;;;5013184;28;20478;-56
2021/12/11 08:35:50;;;;;;;13.77;10.97;;;4.90;99.90;;;;;;5016303;28;20792;-52
2021/12/11 08:38:18;;;;;;;12.83;11.43;;;4.70;99.90;;;;;;5016321;28;20406;-53
2021/12/11 08:40:49;;;;;;;14.03;12.73;;;4.70;99.90;;;;;;4999893;28;20414;-53
2021/12/11 08:43:16;;;;;;;14.90;13.40;;;4.70;99.90;;;;;;5013980;28;20395;-54
2021/12/11 08:45:48;;;;;;;13.60;12.30;;;4.80;99.90;;;;;;4996170;28;20434;-57
2021/12/11 08:48:19;;;;;;;13.40;12.00;;;4.80;99.90;;;;;;4976419;28;20428;-56
2021/12/11 08:50:48;;;;;;;13.50;11.80;;;4.90;99.90;;;;;;4977591;28;20400;-57
2021/12/11 08:53:14;;;;;;;13.97;12.40;;;4.90;99.90;;;;;;4977716;28;20503;-56
2021/12/11 08:55:43;;;;;;;12.47;10.83;;;5.00;99.90;;;;;;5000545;23;20522;-56
2021/12/11 08:58:12;;;;;;;12.30;11.10;;;4.90;99.90;;;;;;4994900;28;20412;-51
2021/12/11 09:00:50;;;;;;;13.73;10.87;;;4.90;99.90;;;;;;4979692;28;20450;-53
2021/12/11 09:03:22;;;;;;;13.07;11.87;;;4.90;99.90;;;;;;4996677;28;20383;-54
2021/12/11 09:05:58;;;;;;;13.50;12.10;;;5.10;99.90;;;;;;4979767;28;20866;-55
2021/12/11 09:08:43;;;;;;;14.23;12.87;;;5.40;99.90;;;;;;4996747;28;20439;-49
2021/12/11 09:11:25;;;;;;;14.27;12.77;;;5.50;99.90;;;;;;4996516;28;20384;-52
2021/12/11 09:13:57;;;;;;;14.03;12.00;;;5.50;99.90;;;;;;4979124;28;21059;-52
2021/12/11 09:16:31;;;;;;;15.40;11.47;;;5.70;99.90;;;;;;4979430;28;20440;-58
2021/12/11 09:19:08;;;;;;;13.80;12.40;;;5.40;99.90;;;;;;4979037;28;20951;-49
2021/12/11 09:21:37;;;;;;;14.87;12.93;;;5.20;99.90;;;;;;4980108;28;20942;-52
2021/12/11 09:24:10;;;;;;;14.70;13.30;;;5.30;99.90;;;;;;4977180;28;20416;-53
2021/12/11 09:26:43;;;;;;;14.30;12.80;;;5.30;99.90;;;;;;4978074;28;20479;-55
2021/12/11 09:29:27;;;;;;;12.00;10.83;;;5.40;99.90;;;;;;4995466;28;20406;-53
2021/12/11 09:32:16;;;;;;;12.07;10.70;;;5.50;99.90;;;;;;4978790;28;20400;-53
2021/12/11 09:34:53;;;;;;;14.37;11.37;;;5.50;99.90;;;;;;4994711;28;20528;-56
2021/12/11 09:37:20;;;;;;;12.40;11.23;;;5.50;99.90;;;;;;4996251;28;20470;-56
2021/12/11 09:40:00;;;;;;;15.57;11.60;;;5.50;99.90;;;;;;4994991;28;20400;-54
2021/12/11 09:42:25;;;;;;;11.20;10.13;;;5.60;99.90;;;;;;4979012;28;20380;-51
2021/12/11 09:44:57;;;;;;;10.30;9.30;;;5.60;99.90;;;;;;4995921;28;20768;-57
2021/12/11 09:47:29;;;;;;;10.53;9.53;;;5.60;99.90;;;;;;4993785;28;20213;-55
2021/12/11 09:50:02;;;;;;;12.33;10.13;;;5.50;99.90;;;;;;4995988;28;20400;-56
2021/12/11 09:52:29;;;;;;;10.37;9.37;;;5.70;99.90;;;;;;4979110;28;20435;-53
2021/12/11 09:55:05;;;;;;;11.23;10.23;;;5.80;99.90;;;;;;4994658;28;20428;-54
2021/12/11 09:57:37;;;;;;;10.93;9.93;;;6.00;99.90;;;;;;4978460;28;20451;-55
2021/12/11 10:00:33;;;;;;;11.37;10.27;;;6.00;99.90;;;;;;4994928;28;20397;-56
2021/12/11 10:03:00;;;;;;;10.60;9.60;;;6.10;99.90;;;;;;4957171;28;20440;-54
2021/12/11 10:05:34;;;;;;;9.73;8.87;;;6.20;99.90;;;;;;4994266;28;20440;-54
2021/12/11 10:11:11;;;;;;;9.67;8.80;;;5.70;99.90;;;;;;4994634;28;20944;-50
2021/12/11 10:14:16;;;;;;;9.20;8.30;;;5.80;99.90;;;;;;4964028;28;20489;-53
2021/12/11 10:16:46;;;;;;;9.80;7.93;;;5.70;99.90;;;;;;4924091;29;20446;-52
2021/12/11 10:19:14;;;;;;;9.23;8.33;;;5.70;99.90;;;;;;4955532;28;20773;-54
2021/12/11 10:21:45;;;;;;;9.10;8.20;;;5.80;99.90;;;;;;4976380;28;20413;-51
2021/12/11 10:24:15;;;;;;;8.80;8.00;;;5.90;99.90;;;;;;4959151;28;20397;-56
2021/12/11 10:26:41;;;;;;;9.70;8.80;;;5.90;99.90;;;;;;4976205;28;20940;-52
2021/12/11 10:29:10;;;;;;;8.50;7.63;;;6.00;99.90;;;;;;4958612;28;20413;-53
2021/12/11 10:32:00;;;;;;;8.47;7.63;;;5.90;99.90;;;;;;4958680;28;20503;-55
2021/12/11 10:34:31;;;;;;;7.73;7.03;;;5.80;99.90;;;;;;4960654;28;20937;-51
2021/12/11 10:36:59;;;;;;;9.33;8.43;;;5.90;99.90;;;;;;4958641;28;20450;-54
2021/12/11 10:39:25;;;;;;;8.90;8.00;;;5.90;99.90;;;;;;4975717;28;20413;-55
2021/12/11 10:41:52;;;;;;;9.13;8.30;;;6.00;99.90;;;;;;4958566;28;20414;-56
2021/12/11 10:44:24;;;;;;;8.77;7.87;;;6.20;99.90;;;;;;4958274;28;20509;-54
2021/12/11 10:47:18;;;;;;;9.00;8.10;;;6.10;99.90;;;;;;4958459;28;20516;-55
2021/12/11 10:49:45;;;;;;;7.63;7.00;;;6.20;99.90;;;;;;4966479;28;20497;-54
2021/12/11 10:52:21;;;;;;;8.00;7.30;;;6.20;99.90;;;;;;4966932;28;20473;-55
2021/12/11 10:54:49;;;;;;;6.93;6.33;;;6.20;99.90;;;;;;4975090;28;20428;-59
2021/12/11 10:57:17;;;;;;;7.27;6.57;;;5.90;99.90;;;;;;4975438;28;20403;-54
2021/12/11 10:59:47;;;;;;;8.30;7.53;;;5.90;99.90;;;;;;4974546;28;20459;-56
2021/12/11 11:02:26;;;;;;;7.13;6.53;;;6.10;99.90;;;;;;4975354;28;20409;-56
2021/12/11 11:04:56;;;;;;;8.37;7.57;;;6.00;99.90;;;;;;4975077;28;20802;-55
2021/12/11 11:07:23;;;;;;;7.90;7.10;;;6.00;99.90;;;;;;4974974;28;20930;-55
2021/12/11 11:09:49;;;;;;;6.70;6.10;;;5.90;99.90;;;;;;4975769;28;20400;-56
2021/12/11 11:12:19;;;;;;;7.40;6.67;;;5.80;99.90;;;;;;4974963;28;20417;-52
2021/12/11 11:14:47;;;;;;;6.90;6.30;;;6.00;99.90;;;;;;4975193;28;20485;-54
2021/12/11 11:17:19;;;;;;;8.00;7.20;;;6.20;99.90;;;;;;4975534;28;20413;-53
2021/12/11 11:19:46;;;;;;;7.40;6.73;;;6.10;99.90;;;;;;4980435;28;20430;-56
2021/12/11 11:22:17;;;;;;;8.03;7.00;;;6.30;99.90;;;;;;4994312;28;20408;-55
2021/12/11 11:24:54;;;;;;;6.90;6.13;;;6.30;99.90;;;;;;4976786;28;20408;-57
2021/12/11 11:27:20;;;;;;;7.57;6.73;;;6.20;99.90;;;;;;4994582;28;20432;-55
2021/12/11 11:29:48;;;;;;;7.23;6.53;;;5.80;99.90;;;;;;4994513;28;20439;-54
2021/12/11 11:32:20;;;;;;;8.00;7.20;;;5.80;99.90;;;;;;4994328;28;20256;-53
2021/12/11 11:34:46;;;;;;;8.67;7.80;;;5.80;99.90;;;;;;4993808;28;20529;-54
2021/12/11 11:37:18;;;;;;;6.97;6.33;;;6.00;99.90;;;;;;4994006;28;20423;-52
2021/12/11 11:39:44;;;;;;;7.87;7.07;;;5.90;99.90;;;;;;4994150;28;20915;-53
2021/12/11 11:42:15;;;;;;;7.60;6.80;;;5.70;99.90;;;;;;4993920;28;20408;-57
2021/12/11 11:44:43;;;;;;;7.70;7.00;;;5.70;99.90;;;;;;4985163;28;20158;-56
2021/12/11 11:47:10;;;;;;;8.30;7.50;;;5.90;99.90;;;;;;4973342;28;20989;-56
2021/12/11 11:49:36;;;;;;;7.17;6.47;;;6.00;99.90;;;;;;4978995;28;20408;-57
2021/12/11 11:52:09;;;;;;;8.20;7.40;;;5.90;99.90;;;;;;4994150;28;20908;-57
2021/12/11 11:54:36;;;;;;;7.50;6.80;;;5.90;99.90;;;;;;4993965;28;20436;-56
2021/12/11 11:57:21;;;;;;;6.43;5.93;;;6.00;99.90;;;;;;4993740;28;20416;-53
2021/12/11 11:59:50;;;;;;;6.97;6.27;;;6.00;99.90;;;;;;4993918;28;20397;-56
2021/12/11 12:02:18;;;;;;;8.33;7.13;;;5.80;99.90;;;;;;4993904;28;20878;-55
2021/12/11 12:04:46;;;;;;;6.93;6.33;;;5.80;99.90;;;;;;4993224;28;20419;-53
2021/12/11 12:07:12;;;;;;;7.83;7.13;;;5.90;99.90;;;;;;4974297;28;20406;-54
2021/12/11 12:09:43;;;;;;;8.93;7.10;;;6.10;99.90;;;;;;4955631;28;20416;-54
2021/12/11 12:12:12;;;;;;;7.87;7.17;;;5.90;99.90;;;;;;4958916;29;20390;-56
2021/12/11 12:14:40;;;;;;;7.73;6.93;;;5.90;99.90;;;;;;4959106;29;20418;-55
2021/12/11 12:17:08;;;;;;;6.77;6.17;;;6.00;99.90;;;;;;4959284;29;20496;-56
2021/12/11 12:19:35;;;;;;;7.80;7.10;;;6.30;99.90;;;;;;4966270;28;20430;-56
2021/12/11 12:22:05;;;;;;;8.23;7.53;;;6.20;99.90;;;;;;4998642;28;20401;-54
2021/12/11 12:24:33;;;;;;;7.40;6.70;;;6.20;99.90;;;;;;4997495;28;20397;-53
2021/12/11 12:27:01;;;;;;;8.60;7.73;;;6.20;99.90;;;;;;4997484;28;20770;-52
2021/12/11 12:29:28;;;;;;;8.20;7.40;;;6.10;99.90;;;;;;4997660;28;20400;-55
2021/12/11 12:31:59;;;;;;;8.63;7.30;;;6.20;99.90;;;;;;4997652;28;20408;-56
2021/12/11 12:34:28;;;;;;;6.43;5.80;;;6.30;99.90;;;;;;4996987;28;20522;-53
2021/12/11 12:36:55;;;;;;;7.23;6.27;;;6.10;99.90;;;;;;4997741;28;20768;-54
2021/12/11 12:39:26;;;;;;;7.10;6.47;;;6.20;99.90;;;;;;4997033;28;20404;-56
2021/12/11 12:42:05;;;;;;;7.17;6.43;;;6.30;99.90;;;;;;4997308;28;20820;-56
2021/12/11 12:44:32;;;;;;;6.60;5.90;;;6.30;99.90;;;;;;4988916;28;20404;-56
2021/12/11 12:47:14;;;;;;;8.37;7.53;;;6.10;99.90;;;;;;4977914;28;20413;-57
2021/12/11 12:49:45;;;;;;;7.63;6.83;;;6.20;99.90;;;;;;4979679;28;20405;-53
2021/12/11 12:52:20;;;;;;;6.73;6.10;;;6.30;99.90;;;;;;4996909;28;20472;-55
2021/12/11 12:54:48;;;;;;;7.27;6.57;;;6.50;99.90;;;;;;4997053;28;20384;-57
2021/12/11 12:57:24;;;;;;;7.33;6.20;;;6.50;99.90;;;;;;4997216;28;20897;-56
2021/12/11 12:59:55;;;;;;;6.40;5.80;;;6.60;99.90;;;;;;4997121;28;20853;-55
2021/12/11 13:02:24;;;;;;;6.13;5.63;;;6.70;99.90;;;;;;4997176;28;20892;-54
2021/12/11 13:05:08;;;;;;;5.57;5.07;;;6.80;99.90;;;;;;4996564;28;20429;-57
2021/12/11 13:07:34;;;;;;;6.10;5.30;;;6.70;99.90;;;;;;4997047;28;20396;-56
2021/12/11 13:10:06;;;;;;;5.50;5.10;;;6.80;99.90;;;;;;4996909;28;20412;-57
2021/12/11 13:12:51;;;;;;;6.20;5.60;;;7.00;99.90;;;;;;4996952;28;20507;-55
2021/12/11 13:15:32;;;;;;;5.93;5.43;;;7.10;99.90;;;;;;4996859;28;20421;-57
2021/12/11 13:18:00;;;;;;;6.27;5.67;;;6.90;99.90;;;;;;4996780;28;20390;-53
2021/12/11 13:20:33;;;;;;;6.23;5.60;;;7.10;99.90;;;;;;4995797;28;20415;-56
2021/12/11 13:23:00;;;;;;;6.30;5.60;;;6.90;99.90;;;;;;4996081;28;20389;-55
2021/12/11 13:25:32;;;;;;;6.80;6.20;;;6.80;99.90;;;;;;4996661;28;20433;-56
2021/12/11 13:28:01;;;;;;;6.53;5.90;;;6.70;99.90;;;;;;4996657;28;20568;-53
2021/12/11 13:30:32;;;;;;;6.10;5.30;;;6.60;99.90;;;;;;4996498;28;20424;-57
2021/12/11 13:32:58;;;;;;;6.60;6.00;;;6.50;99.90;;;;;;4996382;28;20443;-53